Time;durP1;ratioP1;P1;durP2;ratioP2;P2;SDS_P1;SDS_P2;PMS_P1;PMS_P2;Temp;Humidity;BMP_temperature;BMP_pressure;BME280_temperature;BME280_humidity;BME280_pressure;Samples;Min_cycle;Max_cycle;Signal;HPM_P1;HPM_P2
2021/01/05 00:00:22;;;;;;;7.90;6.00;;;2.90;99.90;;;;;;5069999;28;20029;-68
2021/01/05 00:02:53;;;;;;;9.10;5.50;;;2.90;99.90;;;;;;5095844;28;20058;-67
2021/01/05 00:05:22;;;;;;;11.23;6.50;;;2.90;99.90;;;;;;5116238;28;20023;-69
2021/01/05 00:07:48;;;;;;;9.00;5.88;;;2.90;99.90;;;;;;5124709;28;20421;-69
2021/01/05 00:10:14;;;;;;;10.70;6.75;;;2.90;99.90;;;;;;5118068;27;20485;-71
2021/01/05 00:12:40;;;;;;;7.75;6.22;;;2.90;99.90;;;;;;5124833;28;20023;-69
2021/01/05 00:15:09;;;;;;;11.90;6.85;;;2.90;99.90;;;;;;5116909;27;20027;-68
2021/01/05 00:17:36;;;;;;;9.90;6.45;;;3.00;99.90;;;;;;5119513;28;20011;-67
2021/01/05 00:20:14;;;;;;;13.23;6.72;;;2.90;99.90;;;;;;5123866;28;20013;-69
2021/01/05 00:22:39;;;;;;;11.27;5.88;;;2.90;99.90;;;;;;5113608;28;20031;-68
2021/01/05 00:25:07;;;;;;;8.90;6.72;;;2.90;99.90;;;;;;5116140;28;20028;-66
2021/01/05 00:27:33;;;;;;;11.63;7.18;;;2.90;99.90;;;;;;5111665;28;20076;-67
2021/01/05 00:29:59;;;;;;;10.63;6.90;;;2.90;99.90;;;;;;5083914;28;20044;-67
2021/01/05 00:32:24;;;;;;;8.10;5.93;;;2.90;99.90;;;;;;5096828;28;20064;-69
2021/01/05 00:34:51;;;;;;;8.77;6.35;;;2.90;99.90;;;;;;5107263;28;20047;-67
2021/01/05 00:37:17;;;;;;;12.35;6.40;;;2.90;99.90;;;;;;5104170;28;20032;-66
2021/01/05 00:39:44;;;;;;;8.77;6.40;;;2.90;99.90;;;;;;5110439;28;20027;-71
2021/01/05 00:42:11;;;;;;;10.07;7.35;;;2.90;99.90;;;;;;5108205;28;20372;-68
2021/01/05 00:44:36;;;;;;;9.40;6.65;;;2.90;99.90;;;;;;5105157;28;20049;-69
2021/01/05 00:47:04;;;;;;;10.07;6.70;;;2.90;99.90;;;;;;5110569;28;20461;-67
2021/01/05 00:49:30;;;;;;;9.32;6.38;;;2.90;99.90;;;;;;5110070;28;20074;-66
2021/01/05 00:51:58;;;;;;;11.68;6.60;;;2.90;99.90;;;;;;5108158;28;20118;-69
2021/01/05 00:54:26;;;;;;;11.55;6.13;;;2.90;99.90;;;;;;5108456;28;20069;-68
2021/01/05 00:56:59;;;;;;;12.00;6.63;;;2.90;99.90;;;;;;5109499;28;20024;-68
2021/01/05 00:59:25;;;;;;;10.48;7.18;;;2.90;99.90;;;;;;5090835;28;20103;-67
2021/01/05 01:01:56;;;;;;;9.65;6.50;;;2.90;99.90;;;;;;5109294;28;20125;-68
2021/01/05 01:04:21;;;;;;;9.57;6.55;;;2.90;99.90;;;;;;5110915;27;20028;-68
2021/01/05 01:06:47;;;;;;;12.15;7.72;;;2.90;99.90;;;;;;5112109;28;20080;-67
2021/01/05 01:09:12;;;;;;;9.82;6.38;;;2.90;99.90;;;;;;5095567;28;20024;-68
2021/01/05 01:11:38;;;;;;;8.75;6.32;;;2.90;99.90;;;;;;5079634;28;20032;-67
2021/01/05 01:14:05;;;;;;;12.15;6.82;;;2.90;99.90;;;;;;5106393;27;20019;-67
2021/01/05 01:16:30;;;;;;;10.52;6.90;;;2.90;99.90;;;;;;5111988;28;20016;-68
2021/01/05 01:18:56;;;;;;;10.00;6.63;;;2.90;99.90;;;;;;5091307;28;20040;-68
2021/01/05 01:21:22;;;;;;;13.30;7.70;;;2.90;99.90;;;;;;5109280;28;20172;-69
2021/01/05 01:23:47;;;;;;;11.73;7.07;;;2.80;99.90;;;;;;5103102;28;20157;-69
2021/01/05 01:26:12;;;;;;;13.82;7.35;;;2.80;99.90;;;;;;5111083;28;20031;-67
2021/01/05 01:28:40;;;;;;;12.23;6.88;;;2.80;99.90;;;;;;5116115;27;20019;-68
2021/01/05 01:31:06;;;;;;;9.52;6.65;;;2.80;99.90;;;;;;5103973;28;20035;-67
2021/01/05 01:33:32;;;;;;;11.98;7.57;;;2.80;99.90;;;;;;5109343;28;20027;-67
2021/01/05 01:35:58;;;;;;;10.75;6.85;;;2.80;99.90;;;;;;5108025;27;20171;-67
2021/01/05 01:38:23;;;;;;;10.60;7.03;;;2.90;99.90;;;;;;5112589;27;20016;-66
2021/01/05 01:40:49;;;;;;;12.82;6.35;;;2.80;99.90;;;;;;5113067;27;20027;-68
2021/01/05 01:43:15;;;;;;;13.73;7.15;;;2.90;99.90;;;;;;5109805;28;20028;-68
2021/01/05 01:45:40;;;;;;;10.73;7.10;;;2.80;99.90;;;;;;5111390;27;20032;-68
2021/01/05 01:48:09;;;;;;;10.10;7.05;;;2.90;99.90;;;;;;5104128;27;20028;-68
2021/01/05 01:50:37;;;;;;;10.35;6.82;;;2.90;99.90;;;;;;5111180;27;20024;-68
2021/01/05 01:53:19;;;;;;;14.60;7.50;;;2.90;99.90;;;;;;5103608;28;20107;-66
2021/01/05 01:56:23;;;;;;;13.38;6.32;;;2.90;99.90;;;;;;5108616;28;20031;-67
2021/01/05 01:58:57;;;;;;;10.63;6.68;;;2.90;99.90;;;;;;5099906;28;20643;-68
2021/01/05 02:01:58;;;;;;;12.52;7.50;;;2.90;99.90;;;;;;5109516;28;20020;-68
2021/01/05 02:04:35;;;;;;;10.95;6.90;;;2.90;99.90;;;;;;5102272;28;20024;-68
2021/01/05 02:07:16;;;;;;;9.70;6.95;;;2.90;99.90;;;;;;5110113;28;20027;-68
2021/01/05 02:10:05;;;;;;;12.50;7.17;;;2.90;99.90;;;;;;5110849;27;20074;-69
2021/01/05 02:12:41;;;;;;;12.25;6.57;;;3.00;99.90;;;;;;5103117;28;20016;-68
2021/01/05 02:15:31;;;;;;;11.43;7.40;;;2.90;99.90;;;;;;5113455;28;20019;-69
2021/01/05 02:18:30;;;;;;;9.63;6.68;;;3.00;99.90;;;;;;5102973;27;20454;-67
2021/01/05 02:21:08;;;;;;;9.55;7.15;;;2.90;99.90;;;;;;5108277;28;20112;-68
2021/01/05 02:24:12;;;;;;;11.98;7.20;;;3.00;99.90;;;;;;5106920;28;20035;-69
2021/01/05 02:26:56;;;;;;;10.68;7.50;;;2.90;99.90;;;;;;5103211;28;20395;-67
2021/01/05 02:29:29;;;;;;;11.63;7.60;;;2.90;99.90;;;;;;5117824;27;20051;-69
2021/01/05 02:32:16;;;;;;;11.88;6.97;;;2.90;99.90;;;;;;5110208;27;20066;-70
2021/01/05 02:35:02;;;;;;;13.88;7.05;;;2.90;99.90;;;;;;5113854;27;20019;-68
2021/01/05 02:37:55;;;;;;;9.27;6.78;;;2.90;99.90;;;;;;5099105;28;20040;-67
2021/01/05 02:40:30;;;;;;;;;;;2.90;99.90;;;;;;5111646;27;20016;-66
2021/01/05 02:43:26;;;;;;;13.07;8.00;;;2.80;99.90;;;;;;5106768;27;19926;-68
2021/01/05 02:46:28;;;;;;;10.50;7.22;;;2.80;99.90;;;;;;5101032;28;20365;-68
2021/01/05 02:49:20;;;;;;;12.32;7.35;;;2.80;99.90;;;;;;5111981;27;20072;-69
2021/01/05 02:51:55;;;;;;;11.55;7.72;;;2.80;99.90;;;;;;5113040;27;20473;-67
2021/01/05 02:54:59;;;;;;;11.27;7.53;;;2.80;99.90;;;;;;5100334;28;20484;-67
2021/01/05 02:57:52;;;;;;;10.35;7.20;;;2.80;99.90;;;;;;5107888;28;20016;-67
2021/01/05 03:00:43;;;;;;;12.68;7.85;;;2.80;99.90;;;;;;5113490;27;20031;-66
2021/01/05 03:03:35;;;;;;;12.55;7.80;;;2.80;99.90;;;;;;5093502;28;20044;-66
2021/01/05 03:06:16;;;;;;;10.52;7.13;;;2.80;99.90;;;;;;5075646;28;20131;-67
2021/01/05 03:09:01;;;;;;;14.07;7.70;;;2.80;99.90;;;;;;5088535;28;20036;-68
2021/01/05 03:11:52;;;;;;;9.02;6.93;;;2.80;99.90;;;;;;5081954;28;20074;-66
2021/01/05 03:14:58;;;;;;;11.05;7.65;;;2.80;99.90;;;;;;5075660;28;20123;-68
2021/01/05 03:17:57;;;;;;;13.57;7.82;;;2.70;99.90;;;;;;5079837;28;20031;-67
2021/01/05 03:20:55;;;;;;;11.77;7.53;;;2.70;99.90;;;;;;5051458;28;20032;-67
2021/01/05 03:23:21;;;;;;;13.13;7.18;;;2.70;99.90;;;;;;5052853;28;20031;-68
2021/01/05 03:25:51;;;;;;;10.57;6.55;;;2.80;99.90;;;;;;5082968;28;20028;-67
2021/01/05 03:28:25;;;;;;;9.40;6.50;;;2.80;99.90;;;;;;5090027;28;20485;-68
2021/01/05 03:31:09;;;;;;;12.23;7.15;;;2.80;99.90;;;;;;5089290;28;20089;-65
2021/01/05 03:33:34;;;;;;;9.40;6.82;;;2.80;99.90;;;;;;5068326;28;20032;-67
2021/01/05 03:36:00;;;;;;;12.77;7.30;;;2.80;99.90;;;;;;5086002;28;20027;-69
2021/01/05 03:38:27;;;;;;;12.57;7.18;;;2.80;99.90;;;;;;5083537;28;20031;-68
2021/01/05 03:40:52;;;;;;;11.10;7.47;;;2.80;99.90;;;;;;5089079;28;20024;-67
2021/01/05 03:43:18;;;;;;;11.60;7.43;;;2.70;99.90;;;;;;5088196;28;20024;-66
2021/01/05 03:45:43;;;;;;;11.73;7.00;;;2.80;99.90;;;;;;5089198;28;20032;-67
2021/01/05 03:48:09;;;;;;;10.35;6.88;;;2.80;99.90;;;;;;5093050;28;20021;-69
2021/01/05 03:50:35;;;;;;;10.85;7.20;;;2.80;99.90;;;;;;5076082;28;20028;-67
2021/01/05 03:53:00;;;;;;;12.10;7.05;;;2.80;99.90;;;;;;5086130;28;20089;-67
2021/01/05 03:55:26;;;;;;;10.77;7.20;;;2.80;99.90;;;;;;5095744;28;20020;-68
2021/01/05 03:57:51;;;;;;;10.27;6.97;;;2.70;99.90;;;;;;5095011;28;20431;-68
2021/01/05 04:00:28;;;;;;;10.23;7.10;;;2.70;99.90;;;;;;5093745;28;20028;-67
2021/01/05 04:02:56;;;;;;;9.52;6.60;;;2.80;99.90;;;;;;5094108;28;20640;-67
2021/01/05 04:05:23;;;;;;;11.40;7.20;;;2.70;99.90;;;;;;5092447;28;20496;-67
2021/01/05 04:07:50;;;;;;;10.73;6.93;;;2.70;99.90;;;;;;5115400;28;20034;-66
2021/01/05 04:10:16;;;;;;;14.95;7.90;;;2.70;99.90;;;;;;5108182;27;20034;-66
2021/01/05 04:12:44;;;;;;;10.75;6.80;;;2.80;99.90;;;;;;5108763;28;20024;-68
2021/01/05 04:15:16;;;;;;;13.07;8.10;;;2.70;99.90;;;;;;5108849;28;20046;-68
2021/01/05 04:17:43;;;;;;;9.85;6.88;;;2.70;99.90;;;;;;5108817;28;20024;-69
2021/01/05 04:20:11;;;;;;;10.80;7.10;;;2.70;99.90;;;;;;5101176;28;20051;-68
2021/01/05 04:22:37;;;;;;;11.07;7.45;;;2.70;99.90;;;;;;5098993;28;20048;-67
2021/01/05 04:25:05;;;;;;;10.35;7.03;;;2.70;99.90;;;;;;5100241;28;20476;-68
2021/01/05 04:27:32;;;;;;;13.20;7.65;;;2.80;99.90;;;;;;5113868;28;20015;-67
2021/01/05 04:29:57;;;;;;;13.70;8.43;;;2.80;99.90;;;;;;5121412;28;20046;-66
2021/01/05 04:32:24;;;;;;;16.20;7.93;;;2.80;99.90;;;;;;5106073;28;20020;-68
2021/01/05 04:34:50;;;;;;;12.90;7.32;;;2.80;99.90;;;;;;5109193;28;20027;-68
2021/01/05 04:37:15;;;;;;;11.77;7.32;;;2.80;99.90;;;;;;5107427;28;20418;-66
2021/01/05 04:39:41;;;;;;;15.20;8.57;;;2.90;99.90;;;;;;5116996;27;20052;-68
2021/01/05 04:42:29;;;;;;;11.40;7.53;;;2.80;99.90;;;;;;5110725;28;20020;-67
2021/01/05 04:45:01;;;;;;;11.38;6.55;;;2.80;99.90;;;;;;5105851;27;20496;-68
2021/01/05 04:47:31;;;;;;;10.63;6.88;;;2.80;99.90;;;;;;5116692;27;20012;-68
2021/01/05 04:50:05;;;;;;;13.18;6.85;;;2.90;99.90;;;;;;5112357;28;20271;-68
2021/01/05 04:52:56;;;;;;;14.25;8.15;;;2.90;99.90;;;;;;5118220;27;20023;-69
2021/01/05 04:55:42;;;;;;;10.32;6.65;;;2.90;99.90;;;;;;5110455;28;20375;-67
2021/01/05 04:58:30;;;;;;;12.63;7.22;;;2.90;99.90;;;;;;5124694;27;20019;-66
2021/01/05 05:00:57;;;;;;;11.95;7.25;;;2.90;99.90;;;;;;5108512;27;20031;-66
2021/01/05 05:03:50;;;;;;;11.73;7.53;;;2.90;99.90;;;;;;5111795;28;20040;-67
2021/01/05 05:06:24;;;;;;;11.68;7.47;;;2.80;99.90;;;;;;5111552;28;20051;-68
2021/01/05 05:09:09;;;;;;;11.18;7.25;;;2.80;99.90;;;;;;5120555;27;20023;-67
2021/01/05 05:11:56;;;;;;;12.02;7.18;;;2.80;99.90;;;;;;5116728;27;20049;-68
2021/01/05 05:15:20;;;;;;;11.95;6.97;;;2.80;99.90;;;;;;5118966;27;20421;-67
2021/01/05 05:18:18;;;;;;;10.73;6.78;;;2.90;99.90;;;;;;5049967;28;20036;-69
2021/01/05 05:20:50;;;;;;;14.43;8.20;;;3.00;99.90;;;;;;5086064;28;20057;-67
2021/01/05 05:23:46;;;;;;;12.52;7.55;;;2.90;99.90;;;;;;5100096;27;20050;-67
2021/01/05 05:26:43;;;;;;;15.20;7.50;;;2.90;99.90;;;;;;5111039;27;20065;-66
2021/01/05 05:29:41;;;;;;;12.52;7.90;;;2.90;99.90;;;;;;5090544;27;20044;-65
2021/01/05 05:32:30;;;;;;;13.45;7.95;;;3.00;99.90;;;;;;5104743;28;20130;-66
2021/01/05 05:35:22;;;;;;;13.05;7.35;;;3.00;99.90;;;;;;5107020;27;20086;-69
2021/01/05 05:38:04;;;;;;;14.75;8.13;;;3.00;99.90;;;;;;5103865;28;20028;-67
2021/01/05 05:41:08;;;;;;;13.65;7.82;;;3.10;99.90;;;;;;5104435;28;20024;-69
2021/01/05 05:43:54;;;;;;;14.52;8.20;;;3.00;99.90;;;;;;5113313;27;20412;-68
2021/01/05 05:46:38;;;;;;;16.88;9.23;;;3.00;99.90;;;;;;5112278;27;20034;-66
2021/01/05 05:49:28;;;;;;;15.07;8.63;;;2.90;99.90;;;;;;5125424;27;20147;-69
2021/01/05 05:51:59;;;;;;;16.58;9.40;;;3.00;99.90;;;;;;5119728;27;20040;-69
2021/01/05 05:54:24;;;;;;;15.25;9.13;;;3.00;99.90;;;;;;5123387;27;20011;-66
2021/01/05 05:57:06;;;;;;;16.40;9.30;;;2.90;99.90;;;;;;5120003;27;20027;-66
2021/01/05 05:59:47;;;;;;;15.77;9.57;;;2.90;99.90;;;;;;5123324;27;20019;-66
2021/01/05 06:02:18;;;;;;;15.35;9.35;;;3.00;99.90;;;;;;5117869;27;20278;-68
2021/01/05 06:04:44;;;;;;;16.13;8.57;;;3.00;99.90;;;;;;5109770;27;20054;-68
2021/01/05 06:07:10;;;;;;;16.90;9.55;;;3.00;99.90;;;;;;5109970;28;20387;-67
2021/01/05 06:09:36;;;;;;;18.65;10.50;;;2.90;99.90;;;;;;5110127;27;20040;-66
2021/01/05 06:12:04;;;;;;;19.10;9.88;;;2.90;99.90;;;;;;5123297;27;20102;-68
2021/01/05 06:14:30;;;;;;;18.98;9.43;;;2.90;99.90;;;;;;5109985;27;20035;-67
2021/01/05 06:16:55;;;;;;;19.90;10.70;;;2.90;99.90;;;;;;5107336;27;20019;-67
2021/01/05 06:19:21;;;;;;;18.08;9.32;;;3.00;99.90;;;;;;5124857;27;20101;-67
2021/01/05 06:21:46;;;;;;;17.35;9.52;;;3.00;99.90;;;;;;5115611;27;20023;-65
2021/01/05 06:24:13;;;;;;;19.08;8.73;;;3.00;99.90;;;;;;5118604;27;20105;-65
2021/01/05 06:26:39;;;;;;;19.65;10.30;;;3.00;99.90;;;;;;5102757;28;20027;-68
2021/01/05 06:29:05;;;;;;;19.55;9.02;;;3.00;99.90;;;;;;5113100;27;20048;-68
2021/01/05 06:31:30;;;;;;;21.42;9.55;;;3.00;99.90;;;;;;5123241;27;20058;-66
2021/01/05 06:33:57;;;;;;;21.95;11.90;;;2.90;99.90;;;;;;5118555;27;20110;-67
2021/01/05 06:36:23;;;;;;;22.20;11.25;;;3.00;99.90;;;;;;5109487;27;20089;-66
2021/01/05 06:38:49;;;;;;;21.55;11.30;;;3.00;99.90;;;;;;5123190;27;20653;-65
2021/01/05 06:41:15;;;;;;;24.02;11.60;;;3.00;99.90;;;;;;5116300;27;20075;-67
2021/01/05 06:43:41;;;;;;;22.40;10.93;;;2.90;99.90;;;;;;5115094;27;20062;-67
2021/01/05 06:46:09;;;;;;;25.08;11.65;;;2.90;99.90;;;;;;5115481;27;20023;-68
2021/01/05 06:48:35;;;;;;;23.40;11.35;;;2.90;99.90;;;;;;5106113;27;20085;-67
2021/01/05 06:51:02;;;;;;;25.05;11.82;;;2.90;99.90;;;;;;5118819;27;20031;-65
2021/01/05 06:53:27;;;;;;;21.63;11.30;;;3.00;99.90;;;;;;5116806;27;20138;-66
2021/01/05 06:55:53;;;;;;;24.13;11.40;;;3.00;99.90;;;;;;5114275;27;20034;-68
2021/01/05 06:58:18;;;;;;;19.30;9.95;;;3.00;99.90;;;;;;5119313;27;20608;-65
2021/01/05 07:00:44;;;;;;;23.45;12.05;;;3.00;99.90;;;;;;5113009;27;20031;-66
2021/01/05 07:03:09;;;;;;;27.23;11.57;;;3.10;99.90;;;;;;5121796;27;20039;-68
2021/01/05 07:05:35;;;;;;;23.45;11.93;;;3.10;99.90;;;;;;5114717;27;20054;-65
2021/01/05 07:08:03;;;;;;;24.17;12.18;;;3.00;99.90;;;;;;5110145;27;20519;-67
2021/01/05 07:10:29;;;;;;;22.50;11.38;;;3.00;99.90;;;;;;5098233;27;20036;-67
2021/01/05 07:12:54;;;;;;;21.23;11.43;;;3.00;99.90;;;;;;5111911;27;20057;-66
2021/01/05 07:15:21;;;;;;;21.20;10.68;;;3.00;99.90;;;;;;5121235;27;20439;-66
2021/01/05 07:17:47;;;;;;;23.13;12.27;;;3.00;99.90;;;;;;5121282;27;20103;-67
2021/01/05 07:20:15;;;;;;;22.38;11.10;;;3.10;99.90;;;;;;5118895;27;20034;-66
2021/01/05 07:22:40;;;;;;;22.90;11.45;;;3.10;99.90;;;;;;5117109;27;20036;-67
2021/01/05 07:25:10;;;;;;;26.60;12.88;;;3.10;99.90;;;;;;5119628;27;20049;-67
2021/01/05 07:27:36;;;;;;;23.52;11.68;;;3.10;99.90;;;;;;5113617;27;20610;-67
2021/01/05 07:30:05;;;;;;;22.90;11.48;;;3.00;99.90;;;;;;5118711;27;20080;-66
2021/01/05 07:32:31;;;;;;;25.08;12.05;;;3.00;99.90;;;;;;5121525;27;20476;-67
2021/01/05 07:34:57;;;;;;;24.00;11.57;;;3.00;99.90;;;;;;5118343;27;20122;-68
2021/01/05 07:37:28;;;;;;;27.00;12.52;;;3.10;99.90;;;;;;5114698;27;20138;-65
2021/01/05 07:39:55;;;;;;;30.13;13.73;;;3.00;99.90;;;;;;5116539;27;20023;-66
2021/01/05 07:42:26;;;;;;;23.95;12.40;;;3.00;99.90;;;;;;5114152;27;20031;-68
2021/01/05 07:44:54;;;;;;;23.90;12.73;;;3.00;99.90;;;;;;5108033;28;20511;-67
2021/01/05 07:47:35;;;;;;;22.23;11.77;;;2.90;99.90;;;;;;5095678;28;20020;-68
2021/01/05 07:50:01;;;;;;;26.15;12.60;;;3.00;99.90;;;;;;5113829;27;20141;-67
2021/01/05 07:52:40;;;;;;;24.90;13.48;;;3.00;99.90;;;;;;5103517;28;20038;-68
2021/01/05 07:55:10;;;;;;;23.67;12.35;;;3.00;99.90;;;;;;5101199;28;20022;-67
2021/01/05 07:57:36;;;;;;;23.52;11.43;;;3.00;99.90;;;;;;5123715;27;20539;-68
2021/01/05 08:00:07;;;;;;;23.67;12.73;;;3.00;99.90;;;;;;5119536;27;20139;-68
2021/01/05 08:02:32;;;;;;;22.55;11.43;;;2.90;99.90;;;;;;5107887;28;20036;-67
2021/01/05 08:04:58;;;;;;;21.98;12.48;;;2.90;99.90;;;;;;5108279;28;20089;-66
2021/01/05 08:07:23;;;;;;;24.20;13.15;;;2.90;99.90;;;;;;5115394;28;20031;-67
2021/01/05 08:09:51;;;;;;;25.23;12.98;;;2.90;99.90;;;;;;5107017;28;20046;-67
2021/01/05 08:12:20;;;;;;;25.58;13.13;;;2.90;99.90;;;;;;5116432;27;20032;-67
2021/01/05 08:14:46;;;;;;;24.83;12.35;;;2.90;99.90;;;;;;5120694;27;20031;-69
2021/01/05 08:17:13;;;;;;;26.50;13.25;;;2.90;99.90;;;;;;5113882;27;20060;-69
2021/01/05 08:19:44;;;;;;;25.33;12.98;;;2.80;99.90;;;;;;5119647;27;20702;-67
2021/01/05 08:22:11;;;;;;;33.10;13.90;;;2.80;99.90;;;;;;5111817;28;20028;-69
2021/01/05 08:24:38;;;;;;;29.77;13.85;;;2.80;99.90;;;;;;5112865;28;20020;-69
2021/01/05 08:27:06;;;;;;;27.00;13.38;;;2.90;99.90;;;;;;5111914;27;20031;-68
2021/01/05 08:29:31;;;;;;;28.85;13.85;;;2.90;99.90;;;;;;5112162;28;20063;-67
2021/01/05 08:31:57;;;;;;;27.63;13.73;;;2.90;99.90;;;;;;5118809;27;20504;-69
2021/01/05 08:34:24;;;;;;;29.35;13.50;;;2.90;99.90;;;;;;5102292;27;20535;-68
2021/01/05 08:36:49;;;;;;;28.05;13.80;;;3.00;99.90;;;;;;5110503;28;20106;-67
2021/01/05 08:39:17;;;;;;;25.98;12.55;;;3.00;99.90;;;;;;5120436;27;20106;-69
2021/01/05 08:41:45;;;;;;;33.97;14.27;;;3.00;99.90;;;;;;5123660;27;20019;-69
2021/01/05 08:44:12;;;;;;;27.75;13.70;;;3.00;99.90;;;;;;5126641;27;20113;-68
2021/01/05 08:46:42;;;;;;;26.95;12.77;;;3.00;99.90;;;;;;5121692;27;20024;-68
2021/01/05 08:49:09;;;;;;;28.23;13.52;;;3.00;99.90;;;;;;5122520;27;20507;-71
2021/01/05 08:51:35;;;;;;;25.40;13.68;;;3.00;99.90;;;;;;5113837;27;20024;-66
2021/01/05 08:54:00;;;;;;;30.92;13.55;;;3.00;99.90;;;;;;5101327;28;20020;-68
2021/01/05 08:56:27;;;;;;;27.02;13.13;;;2.90;99.90;;;;;;5111200;28;20015;-68
2021/01/05 08:58:53;;;;;;;32.47;14.15;;;3.00;99.90;;;;;;5099366;28;20016;-68
2021/01/05 09:01:21;;;;;;;25.50;13.02;;;3.10;99.90;;;;;;5122670;27;20058;-67
2021/01/05 09:03:46;;;;;;;26.15;13.38;;;3.10;99.90;;;;;;5122941;27;20044;-69
2021/01/05 09:06:18;;;;;;;28.42;13.55;;;3.00;99.90;;;;;;5126307;27;20076;-67
2021/01/05 09:08:45;;;;;;;24.98;13.15;;;3.10;99.90;;;;;;5112611;28;20023;-67
2021/01/05 09:11:18;;;;;;;28.00;12.35;;;3.10;99.90;;;;;;5110117;28;20074;-68
2021/01/05 09:13:43;;;;;;;26.45;11.70;;;3.20;99.90;;;;;;5113969;27;20031;-69
2021/01/05 09:16:09;;;;;;;26.10;12.80;;;3.20;99.90;;;;;;5112041;27;20370;-67
2021/01/05 09:18:34;;;;;;;26.05;12.45;;;3.20;99.90;;;;;;5115625;27;20424;-68
2021/01/05 09:21:04;;;;;;;34.08;13.80;;;3.20;99.90;;;;;;5109081;27;20376;-66
2021/01/05 09:23:33;;;;;;;24.48;13.23;;;3.20;99.90;;;;;;5125112;27;20516;-67
2021/01/05 09:25:58;;;;;;;21.88;11.95;;;3.20;99.90;;;;;;5110742;27;20016;-67
2021/01/05 09:28:27;;;;;;;19.52;10.80;;;3.20;99.90;;;;;;5094554;28;20488;-66
2021/01/05 09:30:52;;;;;;;22.25;12.00;;;3.20;99.90;;;;;;5111789;28;20495;-67
2021/01/05 09:33:19;;;;;;;28.27;13.63;;;3.30;99.90;;;;;;5117922;27;20062;-68
2021/01/05 09:35:48;;;;;;;23.73;12.93;;;3.30;99.90;;;;;;5108359;28;20035;-68
2021/01/05 09:38:13;;;;;;;26.40;12.43;;;3.30;99.90;;;;;;5109260;27;20115;-67
2021/01/05 09:40:40;;;;;;;22.70;11.93;;;3.40;99.90;;;;;;5112825;27;20110;-69
2021/01/05 09:43:08;;;;;;;25.00;12.88;;;3.30;99.90;;;;;;5110688;28;20023;-67
2021/01/05 09:45:34;;;;;;;24.75;13.02;;;3.30;99.90;;;;;;5111610;27;20050;-67
2021/01/05 09:48:12;;;;;;;23.77;12.95;;;3.40;99.90;;;;;;5111000;28;20391;-68
2021/01/05 09:50:41;;;;;;;26.88;12.88;;;3.40;99.90;;;;;;5112128;27;20404;-67
2021/01/05 09:53:09;;;;;;;22.25;12.43;;;3.40;99.90;;;;;;5112003;27;20020;-70
2021/01/05 09:55:37;;;;;;;21.50;12.52;;;3.50;99.90;;;;;;5109043;27;20074;-69
2021/01/05 09:58:05;;;;;;;24.90;12.85;;;3.50;99.90;;;;;;5110366;28;20529;-68
2021/01/05 10:00:31;;;;;;;24.92;13.32;;;3.60;99.90;;;;;;5109819;28;20031;-67
2021/01/05 10:02:57;;;;;;;23.13;13.07;;;3.50;99.90;;;;;;5121161;27;20028;-68
2021/01/05 10:05:23;;;;;;;24.30;13.57;;;3.50;99.90;;;;;;5110654;28;20534;-68
2021/01/05 10:07:49;;;;;;;23.27;12.68;;;3.50;99.90;;;;;;5109466;27;20758;-66
2021/01/05 10:10:24;;;;;;;26.13;14.05;;;3.60;99.90;;;;;;5110287;27;20023;-69
2021/01/05 10:12:50;;;;;;;22.85;13.75;;;3.60;99.90;;;;;;5111772;28;20108;-66
2021/01/05 10:15:18;;;;;;;28.00;15.25;;;3.60;99.90;;;;;;5115153;28;20047;-68
2021/01/05 10:17:44;;;;;;;24.60;13.95;;;3.50;99.90;;;;;;5116522;28;20404;-67
2021/01/05 10:20:12;;;;;;;26.40;14.32;;;3.50;99.90;;;;;;5117658;28;20035;-67
2021/01/05 10:22:38;;;;;;;27.85;15.48;;;3.50;99.90;;;;;;5115361;28;20007;-66
2021/01/05 10:25:07;;;;;;;25.42;14.30;;;3.50;99.90;;;;;;5116308;27;20028;-66
2021/01/05 10:27:33;;;;;;;26.33;14.68;;;3.50;99.90;;;;;;5114956;27;20110;-65
2021/01/05 10:29:58;;;;;;;28.88;14.90;;;3.50;99.90;;;;;;5087142;28;20070;-66
2021/01/05 10:32:24;;;;;;;27.27;14.25;;;3.60;99.90;;;;;;5114727;27;20066;-66
2021/01/05 10:34:51;;;;;;;25.08;14.68;;;3.60;99.90;;;;;;5114919;27;20782;-67
2021/01/05 10:37:17;;;;;;;27.10;14.73;;;3.50;99.90;;;;;;5109715;28;20127;-66
2021/01/05 10:39:43;;;;;;;28.35;14.80;;;3.60;99.90;;;;;;5108933;28;20483;-68
2021/01/05 10:42:09;;;;;;;28.50;15.68;;;3.50;99.90;;;;;;5111144;27;20035;-67
2021/01/05 10:44:36;;;;;;;27.40;15.13;;;3.50;99.90;;;;;;5112339;27;20106;-68
2021/01/05 10:47:05;;;;;;;33.78;15.50;;;3.60;99.90;;;;;;5110266;28;20524;-67
2021/01/05 10:49:30;;;;;;;28.17;14.48;;;3.60;99.90;;;;;;5109453;28;20507;-67
2021/01/05 10:51:59;;;;;;;29.33;15.40;;;3.60;99.90;;;;;;5109043;28;20028;-68
2021/01/05 10:54:27;;;;;;;31.38;14.40;;;3.70;99.90;;;;;;5103438;27;20465;-69
2021/01/05 10:57:03;;;;;;;29.13;15.38;;;3.70;99.90;;;;;;5108752;28;20057;-67
2021/01/05 10:59:30;;;;;;;28.67;15.88;;;3.70;99.90;;;;;;5109294;28;20031;-68
2021/01/05 11:02:02;;;;;;;26.95;13.40;;;3.60;99.90;;;;;;5108764;27;20369;-67
2021/01/05 11:04:31;;;;;;;31.13;15.00;;;3.70;99.90;;;;;;5121371;27;20062;-69
2021/01/05 11:06:59;;;;;;;25.13;13.90;;;3.70;99.90;;;;;;5116315;27;20027;-69
2021/01/05 11:09:26;;;;;;;28.80;15.07;;;3.70;99.90;;;;;;5104671;28;20047;-66
2021/01/05 11:12:00;;;;;;;31.25;15.43;;;3.70;99.90;;;;;;5113985;27;20020;-68
2021/01/05 11:14:26;;;;;;;29.50;14.38;;;3.70;99.90;;;;;;5120989;27;20476;-69
2021/01/05 11:16:52;;;;;;;29.10;15.07;;;3.60;99.90;;;;;;5104666;27;20023;-72
2021/01/05 11:19:25;;;;;;;32.60;14.68;;;3.70;99.90;;;;;;5108724;27;20035;-68
2021/01/05 11:21:52;;;;;;;30.13;14.63;;;3.70;99.90;;;;;;5108874;27;20123;-68
2021/01/05 11:24:18;;;;;;;30.85;14.93;;;3.70;99.90;;;;;;5112443;27;20024;-68
2021/01/05 11:26:44;;;;;;;30.33;14.30;;;3.80;99.90;;;;;;5113844;27;20083;-68
2021/01/05 11:29:10;;;;;;;26.92;14.15;;;3.80;99.90;;;;;;5112008;27;20490;-68
2021/01/05 11:31:36;;;;;;;23.40;12.77;;;3.70;99.90;;;;;;5114921;27;20073;-68
2021/01/05 11:34:02;;;;;;;28.67;15.07;;;3.70;99.90;;;;;;5107364;27;20035;-67
2021/01/05 11:36:29;;;;;;;29.90;13.85;;;3.70;99.90;;;;;;5094125;28;20028;-67
2021/01/05 11:38:57;;;;;;;27.42;14.02;;;3.80;99.90;;;;;;5114411;27;20388;-68
2021/01/05 11:41:34;;;;;;;24.83;12.75;;;3.80;99.90;;;;;;5114843;27;20058;-67
2021/01/05 11:44:01;;;;;;;27.80;14.75;;;3.90;99.90;;;;;;5112906;27;20027;-69
2021/01/05 11:46:27;;;;;;;25.30;13.45;;;3.80;99.90;;;;;;5102778;28;20023;-67
2021/01/05 11:48:55;;;;;;;27.30;12.85;;;3.70;99.90;;;;;;5099949;28;20055;-67
2021/01/05 11:51:27;;;;;;;26.35;13.73;;;3.80;99.90;;;;;;5121761;27;20488;-69
2021/01/05 11:53:53;;;;;;;27.60;12.60;;;3.70;99.90;;;;;;5120292;27;20447;-67
2021/01/05 11:56:21;;;;;;;26.13;13.95;;;3.80;99.90;;;;;;5112268;27;20066;-68
2021/01/05 11:58:48;;;;;;;25.60;12.55;;;3.80;99.90;;;;;;5110611;27;20016;-67
2021/01/05 12:01:13;;;;;;;23.38;12.27;;;3.80;99.90;;;;;;5122343;27;20080;-67
2021/01/05 12:03:40;;;;;;;22.98;12.27;;;3.80;99.90;;;;;;5124309;28;20059;-68
2021/01/05 12:06:15;;;;;;;25.80;12.57;;;3.80;99.90;;;;;;5112421;28;20023;-66
2021/01/05 12:08:41;;;;;;;24.85;13.27;;;3.80;99.90;;;;;;5107817;28;20024;-66
2021/01/05 12:11:06;;;;;;;25.25;12.65;;;3.80;99.90;;;;;;5123351;27;20035;-69
2021/01/05 12:13:32;;;;;;;23.55;11.68;;;3.80;99.90;;;;;;5112984;28;20054;-68
2021/01/05 12:15:57;;;;;;;22.42;10.95;;;3.90;99.90;;;;;;5114767;28;20039;-67
2021/01/05 12:18:23;;;;;;;27.58;11.98;;;3.90;99.90;;;;;;5106497;28;20030;-68
2021/01/05 12:20:50;;;;;;;25.48;12.82;;;4.00;99.90;;;;;;5109522;28;20011;-68
2021/01/05 12:23:16;;;;;;;23.65;11.07;;;3.90;99.90;;;;;;5105546;28;20061;-67
2021/01/05 12:25:42;;;;;;;22.75;12.15;;;3.90;99.90;;;;;;5122486;28;20345;-67
2021/01/05 12:28:09;;;;;;;25.05;12.48;;;3.90;99.90;;;;;;5115645;28;20168;-66
2021/01/05 12:30:35;;;;;;;24.40;11.65;;;3.80;99.90;;;;;;5118960;28;20060;-69
2021/01/05 12:33:00;;;;;;;22.95;11.98;;;3.90;99.90;;;;;;5116822;28;20031;-68
2021/01/05 12:35:26;;;;;;;22.73;10.70;;;3.90;99.90;;;;;;5122780;28;20487;-68
2021/01/05 12:37:57;;;;;;;21.85;11.70;;;3.90;99.90;;;;;;5123374;27;20542;-68
2021/01/05 12:40:23;;;;;;;22.52;11.93;;;3.90;99.90;;;;;;5105691;28;20119;-68
2021/01/05 12:42:50;;;;;;;20.17;10.98;;;3.90;99.90;;;;;;5115678;28;20081;-67
2021/01/05 12:45:17;;;;;;;18.95;10.82;;;3.90;99.90;;;;;;5124374;28;20727;-69
2021/01/05 12:47:43;;;;;;;21.08;11.52;;;4.00;99.90;;;;;;5119448;27;20030;-66
2021/01/05 12:50:09;;;;;;;17.80;10.05;;;4.00;99.90;;;;;;5112607;28;20038;-68
2021/01/05 12:52:36;;;;;;;22.05;11.07;;;4.00;99.90;;;;;;5124450;27;20049;-69
2021/01/05 12:55:03;;;;;;;20.63;10.80;;;4.00;99.90;;;;;;5117133;27;20463;-68
2021/01/05 12:57:29;;;;;;;20.73;10.27;;;4.00;99.90;;;;;;5105897;28;20051;-67
2021/01/05 12:59:54;;;;;;;18.05;9.82;;;4.00;99.90;;;;;;5111181;28;20016;-68
2021/01/05 13:02:23;;;;;;;19.67;10.73;;;4.00;99.90;;;;;;5111385;28;20016;-69